Time;durP1;ratioP1;P1;durP2;ratioP2;P2;SDS_P1;SDS_P2;PMS_P1;PMS_P2;Temp;Humidity;BMP_temperature;BMP_pressure;BME280_temperature;BME280_humidity;BME280_pressure;Samples;Min_cycle;Max_cycle;Signal;HPM_P1;HPM_P2
2022/05/26 00:00:27;;;;;;;19.77;10.10;;;13.80;99.90;;;;;;4955888;28;20455;-54
2022/05/26 00:02:53;;;;;;;16.25;9.70;;;13.80;99.90;;;;;;4973134;28;20046;-55
2022/05/26 00:05:19;;;;;;;21.35;10.63;;;13.80;99.90;;;;;;4973687;28;20122;-55
2022/05/26 00:07:44;;;;;;;15.27;9.85;;;13.80;99.90;;;;;;4973146;28;20545;-54
2022/05/26 00:10:11;;;;;;;25.30;10.68;;;13.80;99.90;;;;;;4973622;28;20051;-54
2022/05/26 00:12:37;;;;;;;20.48;10.73;;;13.80;99.90;;;;;;4973051;28;20126;-55
2022/05/26 00:15:04;;;;;;;21.17;10.48;;;13.80;99.90;;;;;;4973329;28;20265;-54
2022/05/26 00:17:30;;;;;;;18.40;11.32;;;13.80;99.90;;;;;;4972817;28;20133;-55
2022/05/26 00:19:56;;;;;;;22.73;11.30;;;;;;;;;;4973060;28;20122;-52
2022/05/26 00:22:22;;;;;;;23.90;11.25;;;13.80;99.90;;;;;;4972839;28;20043;-54
2022/05/26 00:24:47;;;;;;;24.42;11.80;;;13.80;99.90;;;;;;4972958;28;20077;-53
2022/05/26 00:27:13;;;;;;;25.05;12.15;;;13.80;99.90;;;;;;4973120;28;20137;-55
2022/05/26 00:29:39;;;;;;;28.83;12.73;;;13.80;99.90;;;;;;4972854;28;20159;-53
2022/05/26 00:32:06;;;;;;;25.02;12.48;;;13.80;99.90;;;;;;4972578;28;20054;-50
2022/05/26 00:34:33;;;;;;;26.45;12.63;;;13.50;99.90;;;;;;4972807;28;20051;-54
2022/05/26 00:36:59;;;;;;;25.38;13.68;;;13.70;99.90;;;;;;4973024;28;20058;-54
2022/05/26 00:39:25;;;;;;;29.45;14.15;;;13.90;99.90;;;;;;4972809;28;20042;-54
2022/05/26 00:41:54;;;;;;;28.02;14.07;;;13.70;99.90;;;;;;4972642;28;20054;-54
2022/05/26 00:44:20;;;;;;;24.73;14.18;;;13.70;99.90;;;;;;4972497;28;20487;-55
2022/05/26 00:47:01;;;;;;;28.20;13.52;;;13.70;99.90;;;;;;4972954;28;20050;-55
2022/05/26 00:49:35;;;;;;;27.90;13.07;;;13.70;99.90;;;;;;4971895;28;20534;-53
2022/05/26 00:52:02;;;;;;;31.27;14.32;;;13.80;99.90;;;;;;4973063;28;20078;-54
2022/05/26 00:54:28;;;;;;;27.80;14.32;;;13.70;99.90;;;;;;4972462;28;20058;-59
2022/05/26 00:57:10;;;;;;;29.42;13.88;;;13.70;99.90;;;;;;4972469;28;20058;-59
2022/05/26 00:59:54;;;;;;;25.77;13.77;;;14.90;99.90;;;;;;4972897;28;20097;-59
2022/05/26 01:02:23;;;;;;;27.45;14.25;;;13.60;99.90;;;;;;4952163;28;20057;-59
2022/05/26 01:04:55;;;;;;;26.92;13.45;;;13.60;99.90;;;;;;4971445;28;20117;-60
2022/05/26 01:07:25;;;;;;;32.00;14.23;;;13.70;99.90;;;;;;4966060;28;20446;-59
2022/05/26 01:09:51;;;;;;;28.55;14.80;;;13.70;99.90;;;;;;4953234;28;20057;-59
2022/05/26 01:12:17;;;;;;;28.65;14.45;;;13.70;99.90;;;;;;4953325;29;20495;-59
2022/05/26 01:14:58;;;;;;;26.50;15.13;;;14.20;99.90;;;;;;4953246;29;20047;-59
2022/05/26 01:17:59;;;;;;;27.73;14.75;;;13.70;99.90;;;;;;4952924;29;20062;-60
2022/05/26 01:21:02;;;;;;;31.92;15.07;;;13.70;99.90;;;;;;4953289;29;20039;-59
2022/05/26 01:23:51;;;;;;;34.22;15.40;;;13.70;99.90;;;;;;4953029;29;20063;-54
2022/05/26 01:26:36;;;;;;;32.22;15.13;;;13.40;99.90;;;;;;4965544;28;20133;-55
2022/05/26 01:29:33;;;;;;;33.03;15.60;;;13.70;99.90;;;;;;4954820;28;20062;-54
2022/05/26 01:32:17;;;;;;;31.95;15.82;;;13.70;99.90;;;;;;4972541;28;20481;-54
2022/05/26 01:34:54;;;;;;;30.77;15.27;;;13.70;99.90;;;;;;4972539;28;20058;-54
2022/05/26 01:37:33;;;;;;;29.95;15.98;;;14.10;99.90;;;;;;4972202;28;20046;-55
2022/05/26 01:40:22;;;;;;;31.73;16.25;;;13.70;99.90;;;;;;4972613;28;20053;-54
2022/05/26 01:42:54;;;;;;;33.85;15.85;;;13.80;99.90;;;;;;4971989;28;20089;-54
2022/05/26 01:45:29;;;;;;;28.98;15.90;;;13.70;99.90;;;;;;4972176;28;20043;-59
2022/05/26 01:48:22;;;;;;;36.42;16.42;;;13.70;99.90;;;;;;4972537;28;20055;-59
2022/05/26 01:51:16;;;;;;;37.00;16.90;;;14.20;99.90;;;;;;4972369;28;20050;-59
2022/05/26 01:53:54;;;;;;;36.50;16.48;;;13.70;99.90;;;;;;4972396;28;20407;-60
2022/05/26 01:56:36;;;;;;;30.50;16.00;;;13.90;99.90;;;;;;4971933;28;20055;-60
2022/05/26 01:59:26;;;;;;;36.33;16.58;;;13.70;99.90;;;;;;4972102;28;20070;-59
2022/05/26 02:01:57;;;;;;;35.85;16.85;;;13.70;99.90;;;;;;4974859;28;20054;-59
2022/05/26 02:04:28;;;;;;;35.28;17.55;;;13.70;99.90;;;;;;4975715;28;20051;-59
2022/05/26 02:07:05;;;;;;;36.17;17.35;;;13.70;99.90;;;;;;4975639;28;20073;-59
2022/05/26 02:09:41;;;;;;;38.78;17.38;;;13.70;99.90;;;;;;4975428;28;20461;-59
2022/05/26 02:12:06;;;;;;;37.53;16.25;;;13.70;99.90;;;;;;4975163;28;20054;-60
2022/05/26 02:14:55;;;;;;;36.22;18.15;;;13.70;99.90;;;;;;4975461;28;20446;-60
2022/05/26 02:17:29;;;;;;;36.88;18.02;;;13.70;99.90;;;;;;4961078;28;20051;-60
2022/05/26 02:20:13;;;;;;;42.67;18.30;;;13.70;99.90;;;;;;4975558;28;20050;-59
2022/05/26 02:22:49;;;;;;;35.63;17.60;;;13.70;99.90;;;;;;4975658;28;20118;-59
2022/05/26 02:25:19;;;;;;;;;;;13.60;99.90;;;;;;4975814;28;20047;-59
2022/05/26 02:27:49;;;;;;;38.92;18.63;;;13.60;99.90;;;;;;4957896;28;19984;-60
2022/05/26 02:30:14;;;;;;;47.20;17.55;;;13.60;99.90;;;;;;4975075;28;20051;-59
2022/05/26 02:32:47;;;;;;;39.88;17.98;;;13.60;99.90;;;;;;4975410;28;20054;-59
2022/05/26 02:35:17;;;;;;;39.17;18.00;;;13.50;99.90;;;;;;4975289;28;20114;-59
2022/05/26 02:37:47;;;;;;;40.42;17.75;;;13.50;99.90;;;;;;4974804;28;20511;-59
2022/05/26 02:40:14;;;;;;;43.05;19.13;;;13.00;99.90;;;;;;4974909;28;20051;-59
2022/05/26 02:42:49;;;;;;;44.83;19.17;;;13.60;99.90;;;;;;4974722;28;20055;-59
2022/05/26 02:45:22;;;;;;;38.80;18.40;;;13.50;99.90;;;;;;4957566;28;20055;-59
2022/05/26 02:48:12;;;;;;;47.53;18.65;;;13.50;99.90;;;;;;4974726;28;20129;-54
2022/05/26 02:51:04;;;;;;;40.35;19.73;;;13.60;99.90;;;;;;4974723;28;20122;-53
2022/05/26 02:53:31;;;;;;;43.45;18.63;;;13.60;99.90;;;;;;4974442;28;20122;-54
2022/05/26 02:56:09;;;;;;;38.78;19.75;;;13.50;99.90;;;;;;4974681;28;20051;-59
2022/05/26 02:58:43;;;;;;;40.22;18.65;;;13.60;99.90;;;;;;4974679;28;20051;-59
2022/05/26 03:01:16;;;;;;;41.83;18.80;;;13.60;99.90;;;;;;4957182;28;20051;-59
2022/05/26 03:04:03;;;;;;;45.30;18.83;;;13.60;99.90;;;;;;4974496;28;20047;-59
2022/05/26 03:06:41;;;;;;;40.92;18.70;;;13.80;99.90;;;;;;4974753;28;20054;-59
2022/05/26 03:09:08;;;;;;;49.65;20.52;;;13.60;99.90;;;;;;4974254;28;20557;-59
2022/05/26 03:11:48;;;;;;;40.65;19.45;;;13.60;99.90;;;;;;4973740;28;20051;-59
2022/05/26 03:14:15;;;;;;;45.80;19.70;;;13.70;99.90;;;;;;4974565;28;20097;-60
2022/05/26 03:16:41;;;;;;;46.72;19.38;;;13.60;99.90;;;;;;4973886;28;20098;-59
2022/05/26 03:19:07;;;;;;;46.70;18.55;;;13.70;99.90;;;;;;4974287;28;20038;-60
2022/05/26 03:21:33;;;;;;;47.42;19.08;;;13.70;99.90;;;;;;4974238;28;20458;-59
2022/05/26 03:23:59;;;;;;;41.88;17.85;;;13.70;99.90;;;;;;4974232;28;20038;-59
2022/05/26 03:26:24;;;;;;;50.20;17.73;;;13.90;99.90;;;;;;4974075;28;20055;-59
2022/05/26 03:28:50;;;;;;;43.42;17.70;;;13.60;99.90;;;;;;4956679;28;20042;-59
2022/05/26 03:31:16;;;;;;;46.10;17.17;;;13.60;99.90;;;;;;4973684;28;20483;-51
2022/05/26 03:41:56;;;;;;;44.65;16.40;;;14.50;99.90;;;;;;4973887;28;20398;-55
2022/05/26 03:44:24;;;;;;;39.38;15.88;;;13.70;99.90;;;;;;4973667;28;20049;-55
2022/05/26 03:46:50;;;;;;;48.13;17.27;;;13.80;99.90;;;;;;4956527;28;20058;-52
2022/05/26 03:49:16;;;;;;;44.40;16.65;;;13.80;99.90;;;;;;4973878;28;20430;-60
2022/05/26 03:51:41;;;;;;;42.58;16.63;;;13.80;99.90;;;;;;4973469;28;20135;-59
2022/05/26 03:54:07;;;;;;;53.50;17.60;;;13.80;99.90;;;;;;4973319;28;20106;-59
2022/05/26 03:56:33;;;;;;;40.72;16.17;;;13.80;99.90;;;;;;4973495;28;20109;-59
2022/05/26 03:58:58;;;;;;;51.15;17.15;;;13.80;99.90;;;;;;4973729;28;20479;-60
2022/05/26 04:01:24;;;;;;;52.55;16.60;;;14.00;99.90;;;;;;4973278;28;20055;-60
2022/05/26 04:03:50;;;;;;;49.53;16.20;;;13.80;99.90;;;;;;4973228;28;20391;-53
2022/05/26 04:06:17;;;;;;;44.80;15.45;;;13.90;99.90;;;;;;4973194;28;20047;-54
2022/05/26 04:08:42;;;;;;;37.55;14.48;;;13.90;99.90;;;;;;4973235;28;20054;-58
2022/05/26 04:11:08;;;;;;;44.05;14.43;;;13.80;99.90;;;;;;4973171;28;20204;-59
2022/05/26 04:13:34;;;;;;;53.13;15.80;;;13.90;99.90;;;;;;4956208;28;20285;-59
2022/05/26 04:16:00;;;;;;;57.60;15.40;;;13.90;99.90;;;;;;4973012;28;20525;-54
2022/05/26 04:18:26;;;;;;;53.13;15.43;;;13.90;99.90;;;;;;4972884;28;20039;-54
2022/05/26 04:20:52;;;;;;;48.47;14.25;;;13.90;99.90;;;;;;4972816;28;20061;-53
2022/05/26 04:23:17;;;;;;;46.63;13.45;;;13.90;99.90;;;;;;4971878;28;20055;-54
2022/05/26 04:25:43;;;;;;;45.42;13.18;;;13.90;99.90;;;;;;4973041;28;20395;-53
2022/05/26 04:28:09;;;;;;;41.03;12.95;;;13.90;99.90;;;;;;4973225;28;20508;-54
2022/05/26 04:30:34;;;;;;;41.00;12.68;;;14.00;99.90;;;;;;4972897;28;20434;-54
2022/05/26 04:33:00;;;;;;;38.50;12.57;;;14.00;99.90;;;;;;4955599;28;20046;-55
2022/05/26 04:35:26;;;;;;;47.92;11.57;;;14.00;99.90;;;;;;4972777;28;20057;-54
2022/05/26 04:37:51;;;;;;;37.47;11.45;;;14.00;99.90;;;;;;4972712;28;20503;-55
2022/05/26 04:40:17;;;;;;;38.70;10.90;;;14.10;99.90;;;;;;4972605;28;20051;-55
2022/05/26 04:42:43;;;;;;;37.63;10.20;;;14.30;99.90;;;;;;4955275;28;20047;-55
2022/05/26 04:45:11;;;;;;;30.88;9.05;;;14.60;99.90;;;;;;4972671;28;20098;-55
2022/05/26 04:47:37;;;;;;;30.73;8.30;;;15.00;99.90;;;;;;4972743;28;20109;-55
2022/05/26 04:50:03;;;;;;;31.48;7.80;;;15.80;99.90;;;;;;4972723;28;20046;-55
2022/05/26 04:52:29;;;;;;;28.23;6.97;;;16.80;99.90;;;;;;4972219;28;20053;-55
2022/05/26 04:54:55;;;;;;;23.27;5.80;;;17.80;99.90;;;;;;4971289;28;20058;-55
2022/05/26 04:57:23;;;;;;;21.35;5.38;;;18.90;99.90;;;;;;4955177;28;20058;-56
2022/05/26 04:59:50;;;;;;;21.80;5.03;;;20.40;99.90;;;;;;4973045;28;20042;-56
2022/05/26 05:02:18;;;;;;;18.15;4.95;;;20.60;99.90;;;;;;4972078;28;20051;-56
2022/05/26 05:04:46;;;;;;;17.35;4.72;;;20.90;99.90;;;;;;4955173;28;20110;-56
2022/05/26 05:07:12;;;;;;;18.23;4.40;;;21.30;99.90;;;;;;4972239;28;20051;-56
2022/05/26 05:09:39;;;;;;;15.57;3.65;;;21.80;99.90;;;;;;4972788;28;20054;-56
2022/05/26 05:12:06;;;;;;;13.43;3.20;;;22.10;99.90;;;;;;4972344;28;20051;-56
2022/05/26 05:14:50;;;;;;;13.70;3.40;;;22.50;99.90;;;;;;4955290;28;20058;-60
2022/05/26 05:17:17;;;;;;;14.13;3.00;;;23.00;98.60;;;;;;4972220;28;20053;-60
2022/05/26 05:19:44;;;;;;;13.73;2.58;;;23.30;99.90;;;;;;4972284;28;20051;-60
2022/05/26 05:22:34;;;;;;;11.00;2.92;;;23.70;99.90;;;;;;4972449;28;20430;-60
2022/05/26 05:25:07;;;;;;;11.43;2.70;;;24.20;97.70;;;;;;4972463;28;20043;-60
2022/05/26 05:27:44;;;;;;;6.75;2.30;;;24.50;94.80;;;;;;4972184;28;20050;-60
2022/05/26 05:30:19;;;;;;;14.88;2.70;;;24.60;92.80;;;;;;4972431;28;20050;-60
2022/05/26 05:32:52;;;;;;;14.50;2.75;;;24.50;78.40;;;;;;4972301;28;20059;-60
2022/05/26 05:35:28;;;;;;;10.02;2.58;;;23.70;88.80;;;;;;4974551;28;20057;-59
2022/05/26 05:37:55;;;;;;;11.25;2.50;;;22.70;96.20;;;;;;4975858;28;20066;-59
2022/05/26 05:40:21;;;;;;;11.40;2.60;;;21.90;99.90;;;;;;4975793;28;20043;-59
2022/05/26 05:42:47;;;;;;;10.70;2.38;;;21.20;99.90;;;;;;4958532;28;20109;-59
2022/05/26 05:45:13;;;;;;;12.10;2.40;;;20.70;99.90;;;;;;4976161;28;20113;-59
2022/05/26 05:47:38;;;;;;;10.88;2.40;;;20.50;99.90;;;;;;4975999;28;20486;-59
2022/05/26 05:50:04;;;;;;;9.77;2.08;;;20.20;99.90;;;;;;4976267;28;20375;-59
2022/05/26 05:52:30;;;;;;;9.27;2.33;;;19.90;99.90;;;;;;4975620;28;20046;-60
2022/05/26 05:54:56;;;;;;;11.00;2.33;;;19.60;99.90;;;;;;4958441;28;20055;-59
2022/05/26 05:57:22;;;;;;;9.02;2.30;;;19.30;99.90;;;;;;4975995;28;20507;-59
2022/05/26 05:59:48;;;;;;;13.38;2.38;;;18.90;99.90;;;;;;4958525;28;20113;-59
2022/05/26 06:02:13;;;;;;;11.90;2.38;;;18.80;99.90;;;;;;4975370;28;20046;-60
2022/05/26 06:04:42;;;;;;;11.02;2.30;;;19.30;99.90;;;;;;4975490;28;20406;-60
2022/05/26 06:07:19;;;;;;;11.00;2.30;;;20.50;99.90;;;;;;4975722;28;20141;-60
2022/05/26 06:09:46;;;;;;;9.90;2.50;;;22.00;99.90;;;;;;4975520;28;20076;-59
2022/05/26 06:12:13;;;;;;;10.38;2.17;;;23.00;96.10;;;;;;4975738;28;20055;-59
2022/05/26 06:14:42;;;;;;;8.93;2.20;;;24.00;90.50;;;;;;4974690;28;20054;-60
2022/05/26 06:17:08;;;;;;;10.90;2.30;;;24.70;79.90;;;;;;4975337;28;20051;-59
2022/05/26 06:19:35;;;;;;;5.68;1.90;;;25.20;76.30;;;;;;4969499;28;20194;-60
2022/05/26 06:22:10;;;;;;;4.97;1.88;;;25.50;70.50;;;;;;4948820;28;20054;-60
2022/05/26 06:24:37;;;;;;;8.45;1.98;;;25.50;66.50;;;;;;4966093;28;20047;-59
2022/05/26 06:29:49;;;;;;;8.45;2.00;;;25.90;64.60;;;;;;4966845;28;20106;-59
2022/05/26 06:29:50;;;;;;;11.13;1.52;;;26.40;62.20;;;;;;4966690;28;20491;-60
2022/05/26 06:38:44;;;;;;;4.55;1.77;;;26.60;63.30;;;;;;4974104;28;20088;-59
2022/05/26 06:43:56;;;;;;;9.50;1.60;;;26.90;55.80;;;;;;4974437;28;20105;-59
2022/05/26 06:46:23;;;;;;;5.40;1.60;;;25.90;57.60;;;;;;4972581;28;20050;-59
2022/05/26 06:48:48;;;;;;;7.88;1.70;;;24.80;60.10;;;;;;4956871;28;20054;-59
2022/05/26 06:51:14;;;;;;;10.18;1.88;;;24.30;62.90;;;;;;4973159;28;20043;-59
2022/05/26 06:53:40;;;;;;;6.47;1.83;;;24.30;64.00;;;;;;4974179;28;20047;-59
2022/05/26 06:56:06;;;;;;;6.03;1.90;;;24.70;62.80;;;;;;4973456;28;20300;-59
2022/05/26 06:58:32;;;;;;;8.40;1.58;;;25.20;60.60;;;;;;4973886;28;20053;-59
2022/05/26 07:00:58;;;;;;;8.00;1.80;;;25.50;59.40;;;;;;4972873;28;20050;-59
2022/05/26 07:03:25;;;;;;;8.13;1.70;;;25.40;59.60;;;;;;4972366;28;20074;-59
2022/05/26 07:05:51;;;;;;;6.93;2.08;;;25.30;61.10;;;;;;4971929;28;20050;-59
2022/05/26 07:08:18;;;;;;;9.85;1.77;;;24.80;60.90;;;;;;4972300;28;20059;-59
2022/05/26 07:10:45;;;;;;;4.63;1.40;;;24.40;62.90;;;;;;4973019;28;20053;-59
2022/05/26 07:13:12;;;;;;;5.28;1.55;;;24.20;64.80;;;;;;4972015;28;20596;-60
2022/05/26 07:15:37;;;;;;;6.15;1.70;;;23.60;66.30;;;;;;4972876;28;20047;-60
2022/05/26 07:18:05;;;;;;;7.35;1.58;;;23.00;69.40;;;;;;4972091;28;20139;-59
2022/05/26 07:20:33;;;;;;;6.05;1.85;;;22.50;72.80;;;;;;4972316;28;20463;-59
2022/05/26 07:22:58;;;;;;;6.22;1.63;;;21.90;79.40;;;;;;4972104;28;20109;-59
2022/05/26 07:25:24;;;;;;;7.88;2.25;;;21.50;86.60;;;;;;4972343;28;20055;-59
2022/05/26 07:27:50;;;;;;;9.05;1.80;;;21.40;90.60;;;;;;4954804;28;20043;-60
2022/05/26 07:30:15;;;;;;;8.05;1.60;;;21.40;91.30;;;;;;4955054;28;20042;-59
2022/05/26 07:32:41;;;;;;;5.03;1.55;;;21.30;91.00;;;;;;4972518;28;20541;-59
2022/05/26 07:35:07;;;;;;;4.63;1.33;;;21.10;91.10;;;;;;4972688;28;20049;-59
2022/05/26 07:43:03;;;;;;;5.50;1.60;;;20.40;95.10;;;;;;4972918;28;20443;-59
2022/05/26 07:45:29;;;;;;;8.10;1.75;;;20.40;97.10;;;;;;4972958;28;20108;-59
2022/05/26 07:47:55;;;;;;;7.95;1.70;;;20.30;98.10;;;;;;4972803;28;20055;-60
2022/05/26 07:50:20;;;;;;;4.55;1.40;;;20.30;98.60;;;;;;4972818;28;20050;-59
2022/05/26 07:52:48;;;;;;;6.40;1.60;;;20.30;99.20;;;;;;4955745;28;20059;-59
2022/05/26 07:55:15;;;;;;;6.22;1.75;;;20.20;98.60;;;;;;4973169;28;20042;-59
2022/05/26 07:57:40;;;;;;;6.60;1.60;;;20.30;97.60;;;;;;4972137;28;20061;-60
2022/05/26 08:00:07;;;;;;;7.57;1.50;;;20.50;97.30;;;;;;4932967;28;1143035;-58
2022/05/26 08:02:33;;;;;;;3.90;1.27;;;20.80;95.50;;;;;;4940277;28;20383;-60
2022/05/26 08:04:58;;;;;;;3.10;1.00;;;20.80;92.10;;;;;;4973714;28;20049;-56
2022/05/26 08:07:27;;;;;;;11.02;1.73;;;20.90;90.90;;;;;;4973382;28;20061;-56
2022/05/26 08:09:53;;;;;;;6.05;1.30;;;20.90;90.70;;;;;;4973208;28;20054;-56
2022/05/26 08:12:19;;;;;;;4.78;1.42;;;20.80;86.40;;;;;;4940023;28;20059;-56
2022/05/26 08:14:44;;;;;;;3.67;1.25;;;20.70;85.70;;;;;;4973109;28;20149;-56
2022/05/26 08:17:18;;;;;;;10.95;1.40;;;20.60;85.00;;;;;;4973181;28;20105;-55
2022/05/26 08:19:43;;;;;;;13.40;1.60;;;20.60;87.40;;;;;;4972977;28;20050;-56
2022/05/26 08:22:09;;;;;;;2.67;1.20;;;20.60;87.00;;;;;;4973408;28;20102;-55
2022/05/26 08:24:35;;;;;;;4.72;1.27;;;20.30;84.10;;;;;;4955280;28;20114;-55
2022/05/26 08:27:00;;;;;;;5.22;1.70;;;20.20;90.00;;;;;;4955518;28;20133;-55
2022/05/26 08:29:27;;;;;;;5.03;1.30;;;20.00;90.50;;;;;;4973046;28;20046;-55
2022/05/26 08:31:53;;;;;;;5.47;1.65;;;19.80;91.00;;;;;;4973249;28;20063;-55
2022/05/26 08:34:20;;;;;;;6.55;1.73;;;19.80;92.40;;;;;;4973062;28;20415;-56
2022/05/26 08:36:46;;;;;;;4.95;1.45;;;20.00;92.30;;;;;;4972120;28;20083;-56
2022/05/26 08:39:13;;;;;;;5.47;1.48;;;20.10;92.50;;;;;;4972685;28;20051;-55
2022/05/26 08:41:46;;;;;;;3.78;1.40;;;20.20;92.10;;;;;;4973126;28;20086;-56
2022/05/26 08:44:18;;;;;;;5.38;1.40;;;20.20;91.70;;;;;;4973229;28;20051;-56
2022/05/26 08:46:45;;;;;;;4.05;1.23;;;20.20;88.60;;;;;;4955630;28;20059;-56
2022/05/26 08:49:17;;;;;;;4.82;1.40;;;20.20;89.50;;;;;;4972739;28;20058;-55
2022/05/26 08:52:00;;;;;;;5.32;1.55;;;20.30;90.40;;;;;;4972505;28;20092;-56
2022/05/26 08:54:53;;;;;;;6.35;1.45;;;20.40;89.00;;;;;;4972973;28;20054;-58
2022/05/26 08:57:28;;;;;;;4.28;1.40;;;20.50;87.30;;;;;;4962776;28;20047;-56
2022/05/26 08:59:54;;;;;;;3.83;1.20;;;20.60;88.90;;;;;;4972496;28;20055;-55
2022/05/26 09:02:26;;;;;;;3.88;1.25;;;20.70;90.70;;;;;;4972244;28;20047;-56
2022/05/26 09:04:54;;;;;;;4.90;1.60;;;20.80;90.40;;;;;;4972423;28;20129;-56
2022/05/26 09:13:14;;;;;;;4.53;1.40;;;21.00;85.40;;;;;;4976849;28;20059;-56
2022/05/26 09:15:41;;;;;;;4.38;1.30;;;21.10;85.40;;;;;;4976532;28;20398;-56
2022/05/26 09:18:18;;;;;;;5.72;1.25;;;21.00;82.60;;;;;;4976544;28;20047;-57
2022/05/26 09:20:46;;;;;;;4.78;1.48;;;20.90;77.40;;;;;;4976238;28;20043;-56
2022/05/26 09:23:23;;;;;;;4.43;1.40;;;21.10;81.00;;;;;;4976298;28;20054;-56
2022/05/26 09:26:03;;;;;;;4.30;1.25;;;21.20;75.50;;;;;;4976930;28;20406;-56
2022/05/26 09:28:41;;;;;;;5.45;1.45;;;21.20;77.60;;;;;;4976204;28;20130;-55
2022/05/26 09:31:18;;;;;;;3.70;1.20;;;21.10;76.10;;;;;;4976585;28;20050;-56
2022/05/26 09:33:57;;;;;;;5.05;1.33;;;21.00;77.10;;;;;;4975991;28;20059;-56
2022/05/26 09:36:30;;;;;;;4.85;1.20;;;20.80;78.20;;;;;;4976188;28;20039;-56
2022/05/26 09:38:58;;;;;;;3.35;1.20;;;20.60;79.80;;;;;;4976665;28;20089;-56
2022/05/26 09:41:24;;;;;;;4.25;1.20;;;20.30;80.20;;;;;;4976464;28;20039;-58
2022/05/26 09:43:54;;;;;;;8.38;1.40;;;20.10;80.30;;;;;;4976415;28;20050;-58
2022/05/26 09:46:24;;;;;;;6.63;1.20;;;19.90;81.20;;;;;;4975831;28;20047;-59
2022/05/26 09:48:57;;;;;;;7.60;2.28;;;19.90;81.70;;;;;;4975723;28;20556;-59
2022/05/26 09:51:34;;;;;;;6.93;1.90;;;19.90;85.20;;;;;;4976142;28;20053;-56
2022/05/26 09:54:29;;;;;;;7.90;1.63;;;20.10;87.10;;;;;;4976038;28;20039;-55
2022/05/26 09:56:55;;;;;;;4.93;1.50;;;20.40;87.30;;;;;;4975515;28;20114;-56
2022/05/26 09:59:28;;;;;;;6.68;1.50;;;20.50;84.90;;;;;;4975662;28;20047;-55
2022/05/26 10:02:06;;;;;;;5.03;1.33;;;20.60;85.60;;;;;;4975359;28;20422;-55
2022/05/26 10:04:48;;;;;;;2.72;1.20;;;20.70;77.80;;;;;;4975812;28;20288;-55
2022/05/26 10:07:17;;;;;;;4.03;1.45;;;20.70;82.70;;;;;;4975780;28;20102;-56
2022/05/26 10:10:03;;;;;;;7.97;1.60;;;20.80;84.20;;;;;;4975502;28;20102;-55
2022/05/26 10:12:50;;;;;;;5.85;1.50;;;21.00;82.90;;;;;;4975520;28;20054;-56
2022/05/26 10:15:28;;;;;;;5.60;1.50;;;21.10;81.40;;;;;;4975787;28;20085;-56
2022/05/26 10:18:27;;;;;;;4.93;1.55;;;21.20;83.20;;;;;;4975497;28;20047;-60
2022/05/26 10:21:01;;;;;;;4.75;1.55;;;21.30;82.00;;;;;;4958272;28;20078;-59
2022/05/26 10:23:33;;;;;;;4.05;1.30;;;21.40;85.20;;;;;;4975447;28;20043;-59
2022/05/26 10:26:31;;;;;;;4.53;1.40;;;21.30;85.20;;;;;;4975292;28;20459;-59
2022/05/26 10:29:09;;;;;;;4.43;1.20;;;21.30;78.70;;;;;;4975039;28;20046;-59
2022/05/26 10:31:41;;;;;;;4.28;1.40;;;21.20;85.20;;;;;;4975016;28;20315;-59
2022/05/26 10:34:26;;;;;;;7.13;1.60;;;21.10;83.70;;;;;;4974948;28;20424;-59
2022/05/26 10:36:52;;;;;;;4.63;1.33;;;21.10;79.90;;;;;;4975183;28;20125;-59
2022/05/26 10:39:42;;;;;;;4.00;1.38;;;21.00;84.40;;;;;;4975017;28;20047;-59
2022/05/26 10:42:11;;;;;;;6.00;1.55;;;20.80;80.90;;;;;;4975032;28;20054;-60
2022/05/26 10:44:48;;;;;;;3.78;1.38;;;20.40;85.00;;;;;;4974795;28;20046;-60
2022/05/26 10:47:47;;;;;;;4.57;1.38;;;20.30;88.00;;;;;;4974820;28;20494;-59
2022/05/26 10:50:29;;;;;;;10.07;1.60;;;20.10;89.10;;;;;;4974772;28;20082;-59
2022/05/26 10:53:10;;;;;;;4.50;1.63;;;20.00;91.10;;;;;;4974777;28;20401;-59
2022/05/26 10:56:06;;;;;;;7.00;1.70;;;20.00;92.90;;;;;;4975069;28;20090;-60
2022/05/26 10:58:33;;;;;;;;;;;19.90;93.00;;;;;;4957611;28;20059;-60
2022/05/26 11:01:05;;;;;;;7.20;1.80;;;19.70;97.50;;;;;;4974285;28;19922;-59
2022/05/26 11:03:40;;;;;;;4.47;1.80;;;19.80;95.70;;;;;;4974783;28;20050;-60
2022/05/26 11:06:30;;;;;;;7.93;2.05;;;19.90;95.60;;;;;;4974653;28;20051;-60
2022/05/26 11:09:08;;;;;;;7.07;1.92;;;20.00;95.70;;;;;;4974634;28;20051;-59
2022/05/26 11:11:41;;;;;;;5.63;1.80;;;20.00;94.80;;;;;;4974398;28;20049;-60
2022/05/26 11:17:21;;;;;;;8.93;2.00;;;19.90;94.90;;;;;;4974551;28;20058;-59
2022/05/26 11:17:22;;;;;;;5.70;1.90;;;19.70;95.60;;;;;;4974087;28;20051;-59
2022/05/26 11:20:04;;;;;;;7.70;2.08;;;19.60;96.70;;;;;;4974071;28;20130;-60
2022/05/26 11:22:30;;;;;;;7.85;1.95;;;19.50;97.70;;;;;;4956754;28;20051;-60
2022/05/26 11:24:58;;;;;;;5.97;2.00;;;19.50;98.80;;;;;;4974116;28;20517;-59
2022/05/26 11:27:45;;;;;;;8.43;1.92;;;19.60;99.30;;;;;;4957009;28;20168;-60
2022/05/26 11:36:09;;;;;;;7.05;2.25;;;20.10;99.90;;;;;;4973894;28;20117;-59
2022/05/26 11:38:44;;;;;;;7.85;2.00;;;20.30;99.70;;;;;;4973742;28;20518;-59
2022/05/26 11:41:15;;;;;;;7.03;2.05;;;20.30;98.90;;;;;;4973719;28;20054;-60
2022/05/26 11:43:46;;;;;;;8.45;1.90;;;20.30;99.80;;;;;;4973834;28;20522;-59
2022/05/26 11:46:43;;;;;;;4.28;1.73;;;20.40;99.30;;;;;;4973825;28;20043;-59
2022/05/26 11:49:11;;;;;;;9.23;1.90;;;20.60;97.00;;;;;;4973563;28;20054;-60
2022/05/26 11:51:39;;;;;;;10.05;2.10;;;20.70;97.10;;;;;;4973700;28;20050;-60
2022/05/26 11:54:30;;;;;;;10.00;1.90;;;20.70;95.60;;;;;;4973509;28;20102;-60
2022/05/26 11:56:57;;;;;;;6.97;2.10;;;20.70;95.00;;;;;;4973584;28;20422;-59
2022/05/26 11:59:31;;;;;;;5.70;1.70;;;20.60;95.50;;;;;;4973402;28;20402;-59
2022/05/26 12:02:00;;;;;;;7.05;2.10;;;20.60;94.50;;;;;;4973352;28;20063;-60
2022/05/26 12:04:27;;;;;;;10.45;2.15;;;20.50;93.30;;;;;;4973323;28;20050;-59
2022/05/26 12:07:21;;;;;;;5.50;1.80;;;20.50;93.00;;;;;;4973457;28;20054;-60
2022/05/26 12:09:51;;;;;;;4.03;1.65;;;20.80;92.80;;;;;;4973531;28;20054;-59
2022/05/26 12:12:17;;;;;;;7.38;1.50;;;21.00;92.50;;;;;;4973511;28;20065;-60
2022/05/26 12:14:55;;;;;;;7.45;1.98;;;21.00;92.00;;;;;;4973064;28;20058;-59
2022/05/26 12:17:48;;;;;;;9.50;1.75;;;20.90;90.80;;;;;;4973186;28;20055;-60
2022/05/26 12:20:14;;;;;;;5.25;1.52;;;21.10;91.60;;;;;;4920760;28;20519;-60
2022/05/26 12:22:52;;;;;;;7.38;1.85;;;21.30;91.90;;;;;;4973299;28;20140;-60
2022/05/26 12:25:23;;;;;;;5.68;1.70;;;21.50;86.60;;;;;;4973532;28;20039;-60
2022/05/26 12:27:49;;;;;;;9.43;1.98;;;21.50;86.10;;;;;;4973088;28;20118;-59
2022/05/26 12:30:35;;;;;;;10.15;2.22;;;21.50;85.90;;;;;;4973068;28;20515;-59
2022/05/26 12:33:18;;;;;;;9.18;2.10;;;21.50;88.10;;;;;;4972888;28;20297;-59
2022/05/26 12:36:02;;;;;;;7.40;2.20;;;21.60;89.30;;;;;;4972957;28;20458;-59
2022/05/26 12:38:34;;;;;;;8.02;2.00;;;21.60;88.40;;;;;;4972971;28;20057;-60
2022/05/26 12:41:34;;;;;;;5.50;1.83;;;21.50;85.90;;;;;;4972683;28;20038;-59
2022/05/26 12:44:21;;;;;;;6.50;2.05;;;21.30;87.30;;;;;;4972084;28;20390;-59
2022/05/26 12:47:23;;;;;;;8.50;2.33;;;21.10;90.90;;;;;;4972893;28;20391;-59
2022/05/26 12:50:06;;;;;;;8.60;2.10;;;21.00;92.40;;;;;;4972731;28;20590;-59
2022/05/26 12:52:40;;;;;;;5.93;1.80;;;21.10;92.40;;;;;;4955318;28;20050;-59
2022/05/26 12:55:10;;;;;;;4.18;1.70;;;21.20;92.30;;;;;;4972632;28;20051;-59
2022/05/26 12:57:39;;;;;;;5.80;1.77;;;21.20;92.50;;;;;;4972713;28;20453;-59
2022/05/26 13:00:26;;;;;;;8.60;1.90;;;21.20;91.20;;;;;;4972287;28;20042;-58
2022/05/26 13:02:59;;;;;;;7.85;2.00;;;21.00;91.60;;;;;;4972691;28;20528;-60
2022/05/26 13:05:28;;;;;;;6.82;1.92;;;20.90;92.10;;;;;;4955083;28;20495;-59
2022/05/26 13:07:56;;;;;;;6.65;1.90;;;20.90;93.90;;;;;;4954971;28;20059;-59
2022/05/26 13:10:33;;;;;;;6.10;1.83;;;21.00;93.90;;;;;;4972630;28;20117;-59
2022/05/26 13:12:59;;;;;;;8.50;1.80;;;21.20;93.70;;;;;;4972747;28;20122;-60
2022/05/26 13:15:27;;;;;;;7.28;1.63;;;21.20;91.70;;;;;;4955367;28;20047;-60
2022/05/26 13:17:53;;;;;;;5.03;1.60;;;21.20;90.50;;;;;;4972233;28;20053;-60
2022/05/26 13:20:32;;;;;;;6.50;1.70;;;21.20;91.10;;;;;;4972490;28;20125;-60
2022/05/26 13:22:58;;;;;;;5.55;2.20;;;21.10;90.90;;;;;;4972814;28;20447;-59
2022/05/26 13:25:31;;;;;;;6.85;1.85;;;21.10;90.50;;;;;;4972439;28;20046;-59
2022/05/26 13:28:05;;;;;;;6.72;2.00;;;21.20;91.80;;;;;;4972414;28;20050;-60
2022/05/26 13:33:49;;;;;;;6.32;1.88;;;21.40;87.90;;;;;;4972541;28;20062;-59
2022/05/26 13:36:24;;;;;;;10.52;2.28;;;21.30;85.30;;;;;;4972773;28;20129;-59
2022/05/26 13:38:51;;;;;;;7.90;2.17;;;21.20;88.90;;;;;;4972522;28;20130;-60
2022/05/26 13:41:25;;;;;;;6.82;2.03;;;21.10;89.10;;;;;;4972142;28;20118;-59